Time;durP1;ratioP1;P1;durP2;ratioP2;P2;SDS_P1;SDS_P2;PMS_P1;PMS_P2;Temp;Humidity;BMP_temperature;BMP_pressure;BME280_temperature;BME280_humidity;BME280_pressure;Samples;Min_cycle;Max_cycle;Signal;HPM_P1;HPM_P2
2024/02/22 00:00:55;;;;;;;;;;;;;;;-144.99;100.00;52615.25;5059843;28;20174;-80
2024/02/22 00:03:22;;;;;;;;;;;;;;;-144.99;100.00;52609.13;5059947;28;20047;-82
2024/02/22 00:05:50;;;;;;;;;;;;;;;-144.99;100.00;52633.59;5053768;28;19983;-81
2024/02/22 00:08:16;;;;;;;;;;;;;;;-144.99;100.00;52607.09;5065200;28;19956;-78
2024/02/22 00:10:43;;;;;;;;;;;;;;;-144.99;100.00;52623.38;5069776;28;19925;-76
2024/02/22 00:13:10;;;;;;;;;;;;;;;-144.99;100.00;52631.53;5068230;28;19929;-79
2024/02/22 00:15:36;;;;;;;;;;;;;;;-144.99;100.00;52639.69;5059494;28;19928;-81
2024/02/22 00:18:04;;;;;;;;;;;;;;;-144.99;100.00;52623.38;5057770;28;20305;-79
2024/02/22 00:20:30;;;;;;;;;;;;;;;-144.99;100.00;52643.78;5060085;28;19974;-80
2024/02/22 00:22:59;;;;;;;;;;;;;;;-144.99;100.00;52633.59;5054559;28;19971;-80
2024/02/22 00:25:26;;;;;;;;;;;;;;;-144.99;100.00;52649.88;5054797;28;20704;-79
2024/02/22 00:27:52;;;;;;;;;;;;;;;-144.99;100.00;52651.94;5055366;28;19954;-79
2024/02/22 00:30:20;;;;;;;;;;;;;;;-144.99;100.00;52641.72;5060417;28;19924;-79
2024/02/22 00:32:47;;;;;;;;;;;;;;;-144.99;100.00;52635.63;5067370;28;19924;-80
2024/02/22 00:35:13;;;;;;;;;;;;;;;-144.99;100.00;52631.53;5049441;28;19932;-78
2024/02/22 00:37:40;;;;;;;;;;;;;;;-144.99;100.00;52625.44;5055423;28;19993;-81
2024/02/22 00:40:09;;;;;;;;;;;;;;;-144.99;100.00;52615.25;5056476;28;20459;-78
2024/02/22 00:42:35;;;;;;;;;;;;;;;-144.99;100.00;52615.25;5055749;28;19932;-78
2024/02/22 00:45:03;;;;;;;;;;;;;;;-144.99;100.00;52586.69;5049826;28;20055;-78
2024/02/22 00:47:30;;;;;;;;;;;;;;;-144.99;100.00;52635.63;5057742;28;19928;-79
2024/02/22 00:49:56;;;;;;;;;;;;;;;-144.99;100.00;52619.31;5054877;28;20188;-78
2024/02/22 00:52:23;;;;;;;;;;;;;;;-144.99;100.00;52623.38;5071821;28;20369;-77
2024/02/22 00:54:49;;;;;;;;;;;;;;;-144.99;100.00;52627.47;5061391;28;19978;-74
2024/02/22 00:57:17;;;;;;;;;;;;;;;-144.99;100.00;52590.78;5054926;28;19971;-77
2024/02/22 00:59:43;;;;;;;;;;;;;;;-144.99;100.00;52639.69;5074150;28;19928;-77
2024/02/22 01:02:10;;;;;;;;;;;;;;;-144.99;100.00;52623.38;5062253;28;20367;-78
2024/02/22 01:04:37;;;;;;;;;;;;;;;-144.99;100.00;52668.22;5053839;28;19924;-79
2024/02/22 01:07:03;;;;;;;;;;;;;;;-144.99;100.00;52607.09;5056060;28;20001;-78
2024/02/22 01:09:30;;;;;;;;;;;;;;;-144.99;100.00;52613.19;5058536;28;20363;-79
2024/02/22 01:11:56;;;;;;;;;;;;;;;-144.99;100.00;52615.25;5065146;28;20036;-78
2024/02/22 01:14:24;;;;;;;;;;;;;;;-144.99;100.00;52594.84;5060290;28;19924;-79
2024/02/22 01:16:50;;;;;;;;;;;;;;;-144.99;100.00;52619.31;5057107;28;19939;-77
2024/02/22 01:19:17;;;;;;;;;;;;;;;-144.99;100.00;52617.28;5059314;28;19928;-79
2024/02/22 01:21:44;;;;;;;;;;;;;;;-144.99;100.00;52643.78;5061057;28;19931;-80
2024/02/22 01:24:10;;;;;;;;;;;;;;;-144.99;100.00;52615.25;5053337;28;19944;-79
2024/02/22 01:26:37;;;;;;;;;;;;;;;-144.99;100.00;52631.53;5060552;28;20019;-80
2024/02/22 01:29:03;;;;;;;;;;;;;;;-144.99;100.00;52596.88;5062250;28;20506;-80
2024/02/22 01:31:31;;;;;;;;;;;;;;;-144.99;100.00;52607.09;5066453;28;19963;-80
2024/02/22 01:33:58;;;;;;;;;;;;;;;-144.99;100.00;52603.00;5060767;28;19924;-78
2024/02/22 01:39:13;;;;;;;;;;;;;;;-144.99;100.00;52594.84;5054658;22;20083;-65
2024/02/22 01:41:40;;;;;;;;;;;;;;;-144.99;100.00;52619.31;5050213;28;20010;-66
2024/02/22 01:44:05;;;;;;;;;;;;;;;-144.99;100.00;52594.84;5048635;28;20033;-69
2024/02/22 01:46:33;;;;;;;;;;;;;;;-144.99;100.00;52643.78;5037835;28;19976;-69
2024/02/22 01:49:00;;;;;;;;;;;;;;;-144.99;100.00;52609.13;5049281;28;20457;-68
2024/02/22 01:51:27;;;;;;;;;;;;;;;-144.99;100.00;52615.25;5042617;28;20407;-65
2024/02/22 01:53:54;;;;;;;;;;;;;;;-144.99;100.00;52592.81;5047145;28;19929;-71
2024/02/22 01:56:21;;;;;;;;;;;;;;;-144.99;100.00;52598.94;5051069;28;20020;-70
2024/02/22 01:58:48;;;;;;;;;;;;;;;-144.99;100.00;52603.00;5040081;28;20024;-71
2024/02/22 02:01:16;;;;;;;;;;;;;;;-144.99;100.00;52607.09;5044704;28;19933;-71
2024/02/22 02:03:44;;;;;;;;;;;;;;;-144.99;100.00;52611.16;5050047;28;20020;-72
2024/02/22 02:06:11;;;;;;;;;;;;;;;-144.99;100.00;52625.44;5042128;28;19971;-72
2024/02/22 02:08:37;;;;;;;;;;;;;;;-144.99;100.00;52598.94;5041799;28;19924;-72
2024/02/22 02:11:04;;;;;;;;;;;;;;;-144.99;100.00;52633.59;5046531;28;20343;-71
2024/02/22 02:13:31;;;;;;;;;;;;;;;-144.99;100.00;52621.34;5042443;28;20358;-72
2024/02/22 02:15:58;;;;;;;;;;;;;;;-144.99;100.00;52639.69;5039068;28;19964;-69
2024/02/22 02:18:24;;;;;;;;;;;;;;;-144.99;100.00;52598.94;5046802;28;19929;-69
2024/02/22 02:20:57;;;;;;;;;;;;;;;-144.99;100.00;52627.47;5048843;28;20386;-70
2024/02/22 02:23:28;;;;;;;;;;;;;;;-144.99;100.00;52605.03;5039529;28;19929;-69
2024/02/22 02:25:57;;;;;;;;;;;;;;;-144.99;100.00;52621.34;5038215;28;19935;-67
2024/02/22 02:28:23;;;;;;;;;;;;;;;-144.99;100.00;52637.66;5049496;28;19925;-66
2024/02/22 02:30:50;;;;;;;;;;;;;;;-144.99;100.00;52607.09;5040860;28;19965;-68
2024/02/22 02:33:16;;;;;;;;;;;;;;;-144.99;100.00;52668.22;5039535;28;20374;-67
2024/02/22 02:35:43;;;;;;;;;;;;;;;-144.99;100.00;52619.31;5046053;28;20016;-67
2024/02/22 02:38:10;;;;;;;;;;;;;;;-144.99;100.00;52621.34;5047264;28;19983;-69
2024/02/22 02:40:37;;;;;;;;;;;;;;;-144.99;100.00;52598.94;5045241;28;20355;-65
2024/02/22 02:43:05;;;;;;;;;;;;;;;-144.99;100.00;52615.25;5046039;28;19956;-68
2024/02/22 02:45:32;;;;;;;;;;;;;;;-144.99;100.00;52592.81;5045485;28;19928;-69
2024/02/22 02:47:58;;;;;;;;;;;;;;;-144.99;100.00;52582.63;5043846;28;20299;-66
2024/02/22 02:50:25;;;;;;;;;;;;;;;-144.99;100.00;52590.78;5056420;28;20300;-66
2024/02/22 02:52:53;;;;;;;;;;;;;;;-144.99;100.00;52623.38;5046578;28;20382;-67
2024/02/22 02:55:19;;;;;;;;;;;;;;;-144.99;100.00;52664.16;5041351;28;19994;-67
2024/02/22 02:57:46;;;;;;;;;;;;;;;-144.99;100.00;52623.38;5045243;28;19925;-67
2024/02/22 03:00:15;;;;;;;;;;;;;;;-144.99;100.00;52592.81;5036768;28;19944;-63
2024/02/22 03:02:42;;;;;;;;;;;;;;;-144.99;100.00;52582.63;5036000;28;19933;-65
2024/02/22 03:05:09;;;;;;;;;;;;;;;-144.99;100.00;52607.09;5037876;28;19961;-63
2024/02/22 03:07:35;;;;;;;;;;;;;;;-144.99;100.00;52611.16;5045153;28;20026;-65
2024/02/22 03:10:02;;;;;;;;;;;;;;;-144.99;100.00;52598.94;5035977;28;20023;-65
2024/02/22 03:12:28;;;;;;;;;;;;;;;-144.99;100.00;52603.00;5040012;28;19994;-69
2024/02/22 03:14:55;;;;;;;;;;;;;;;-144.99;100.00;52607.09;5052309;28;20034;-72
2024/02/22 03:17:24;;;;;;;;;;;;;;;-144.99;100.00;52615.25;5040901;28;19982;-69
2024/02/22 03:19:52;;;;;;;;;;;;;;;-144.99;100.00;52586.69;5045215;28;20028;-73
2024/02/22 03:22:19;;;;;;;;;;;;;;;-144.99;100.00;52603.00;5036898;28;20024;-69
2024/02/22 03:24:45;;;;;;;;;;;;;;;-144.99;100.00;52635.63;5045090;28;19994;-68
2024/02/22 03:27:11;;;;;;;;;;;;;;;-144.99;100.00;52611.16;5033725;28;20071;-67
2024/02/22 03:29:39;;;;;;;;;;;;;;;-144.99;100.00;52635.63;5047791;28;20386;-68
2024/02/22 03:32:05;;;;;;;;;;;;;;;-144.99;100.00;52609.13;5038479;28;19952;-67
2024/02/22 03:34:34;;;;;;;;;;;;;;;-144.99;100.00;52578.53;5054922;28;19968;-67
2024/02/22 03:37:02;;;;;;;;;;;;;;;-144.99;100.00;52562.25;5040260;28;19972;-67
2024/02/22 03:39:28;;;;;;;;;;;;;;;-144.99;100.00;52590.78;5039856;28;19999;-67
2024/02/22 03:41:55;;;;;;;;;;;;;;;-144.99;100.00;52590.78;5047176;28;20337;-67
2024/02/22 03:44:22;;;;;;;;;;;;;;;-144.99;100.00;52607.09;5048834;28;19929;-66
2024/02/22 03:46:48;;;;;;;;;;;;;;;-144.99;100.00;52582.63;5041765;28;20290;-67
2024/02/22 03:49:15;;;;;;;;;;;;;;;-144.99;100.00;52586.69;5046210;28;19925;-67
2024/02/22 03:51:43;;;;;;;;;;;;;;;-144.99;100.00;52590.78;5041807;28;19968;-68
2024/02/22 03:54:09;;;;;;;;;;;;;;;-144.99;100.00;52631.53;5045452;28;19968;-67
2024/02/22 03:56:36;;;;;;;;;;;;;;;-144.99;100.00;52611.16;5036213;28;19929;-66
2024/02/22 03:59:03;;;;;;;;;;;;;;;-144.99;100.00;52590.78;5041477;28;20008;-66
2024/02/22 04:01:30;;;;;;;;;;;;;;;-144.99;100.00;52623.38;5046583;28;19972;-65
2024/02/22 04:03:57;;;;;;;;;;;;;;;-144.99;100.00;52603.00;5047676;28;19932;-66
2024/02/22 04:06:24;;;;;;;;;;;;;;;-144.99;100.00;52586.69;5041965;28;19932;-64
2024/02/22 04:08:52;;;;;;;;;;;;;;;-144.99;100.00;52588.75;5036890;28;19979;-69
2024/02/22 04:11:18;;;;;;;;;;;;;;;-144.99;100.00;52607.09;5035837;28;19929;-66
2024/02/22 04:13:46;;;;;;;;;;;;;;;-144.99;100.00;52619.31;5041282;28;19928;-64
2024/02/22 04:16:12;;;;;;;;;;;;;;;-144.99;100.00;52619.31;5041586;28;20331;-63
2024/02/22 04:18:38;;;;;;;;;;;;;;;-144.99;100.00;52590.78;5039963;28;19943;-65
2024/02/22 04:21:05;;;;;;;;;;;;;;;-144.99;100.00;52611.16;5041814;28;20397;-66
2024/02/22 04:23:32;;;;;;;;;;;;;;;-144.99;100.00;52562.25;5041596;28;20298;-64
2024/02/22 04:25:59;;;;;;;;;;;;;;;-144.99;100.00;52590.78;5047612;28;19960;-65
2024/02/22 04:28:26;;;;;;;;;;;;;;;-144.99;100.00;52598.94;5044049;28;20230;-64
2024/02/22 04:30:52;;;;;;;;;;;;;;;-144.99;100.00;52611.16;5041796;28;19995;-64
2024/02/22 04:33:20;;;;;;;;;;;;;;;-144.99;100.00;52619.31;5039574;28;19929;-66
2024/02/22 04:35:47;;;;;;;;;;;;;;;-144.99;100.00;52598.94;5038230;28;19951;-65
2024/02/22 04:38:13;;;;;;;;;;;;;;;-144.99;100.00;52580.59;4968435;28;1873826;-66
2024/02/22 04:40:40;;;;;;;;;;;;;;;-144.99;100.00;52627.47;5031881;28;19925;-64
2024/02/22 04:43:08;;;;;;;;;;;;;;;-144.99;100.00;52558.16;5041440;28;20029;-65
2024/02/22 04:45:35;;;;;;;;;;;;;;;-144.99;100.00;52627.47;5035788;28;19929;-70
2024/02/22 04:48:03;;;;;;;;;;;;;;;-144.99;100.00;52603.00;5047193;28;19935;-70
2024/02/22 04:50:29;;;;;;;;;;;;;;;-144.99;100.00;52611.16;5035633;28;19987;-70
2024/02/22 04:52:56;;;;;;;;;;;;;;;-144.99;100.00;52629.50;5042942;28;19925;-69
2024/02/22 04:55:22;;;;;;;;;;;;;;;-144.99;100.00;52598.94;5035967;28;20395;-70
2024/02/22 04:57:49;;;;;;;;;;;;;;;-144.99;100.00;52611.16;5048423;28;20154;-69
2024/02/22 05:00:18;;;;;;;;;;;;;;;-144.99;100.00;52598.94;5052871;28;19924;-58
2024/02/22 05:02:45;;;;;;;;;;;;;;;-144.99;100.00;52590.78;5042225;28;19991;-66
2024/02/22 05:05:11;;;;;;;;;;;;;;;-144.99;100.00;52594.84;5036015;28;20422;-66
2024/02/22 05:07:38;;;;;;;;;;;;;;;-144.99;100.00;52631.53;5041908;28;19972;-66
2024/02/22 05:10:06;;;;;;;;;;;;;;;-144.99;100.00;52603.00;5039201;28;19968;-66
2024/02/22 05:12:32;;;;;;;;;;;;;;;-144.99;100.00;52590.78;5038994;28;20314;-66
2024/02/22 05:14:59;;;;;;;;;;;;;;;-144.99;100.00;52607.09;5044955;28;19939;-68
2024/02/22 05:17:27;;;;;;;;;;;;;;;-144.99;100.00;52560.19;5038770;28;19964;-68
2024/02/22 05:19:54;;;;;;;;;;;;;;;-144.99;100.00;52582.63;5034905;22;19932;-70
2024/02/22 05:22:20;;;;;;;;;;;;;;;-144.99;100.00;52578.53;5014811;28;19967;-68
2024/02/22 05:24:46;;;;;;;;;;;;;;;-144.99;100.00;52598.94;5009199;28;20028;-70
2024/02/22 05:27:13;;;;;;;;;;;;;;;-144.99;100.00;52635.63;5011369;28;20048;-67
2024/02/22 05:29:39;;;;;;;;;;;;;;;-144.99;100.00;52603.00;5004747;28;20383;-69
2024/02/22 05:32:06;;;;;;;;;;;;;;;-144.99;100.00;52603.00;5002230;28;19939;-70
2024/02/22 05:34:34;;;;;;;;;;;;;;;-144.99;100.00;52598.94;5004096;28;19964;-70
2024/02/22 05:37:00;;;;;;;;;;;;;;;-144.99;100.00;52576.50;5002411;28;19939;-71
2024/02/22 05:39:26;;;;;;;;;;;;;;;-144.99;100.00;52629.50;5003748;28;20418;-70
2024/02/22 05:41:53;;;;;;;;;;;;;;;-144.99;100.00;52594.84;5000761;28;20056;-69
2024/02/22 05:44:19;;;;;;;;;;;;;;;-144.99;100.00;52603.00;5002351;28;20004;-70
2024/02/22 05:46:47;;;;;;;;;;;;;;;-144.99;100.00;52603.00;5003606;28;20478;-70
2024/02/22 05:49:13;;;;;;;;;;;;;;;-144.99;100.00;52631.53;5003884;28;20020;-70
2024/02/22 05:51:41;;;;;;;;;;;;;;;-144.99;100.00;52568.34;5003829;28;20012;-70
2024/02/22 05:54:08;;;;;;;;;;;;;;;-144.99;100.00;52582.63;5003967;28;19937;-69
2024/02/22 05:56:34;;;;;;;;;;;;;;;-144.99;100.00;52594.84;5005675;28;19933;-70
2024/02/22 05:59:00;;;;;;;;;;;;;;;-144.99;100.00;52570.38;5007274;28;19991;-69
2024/02/22 06:01:27;;;;;;;;;;;;;;;-144.99;100.00;52590.78;5007467;28;19976;-70
2024/02/22 06:03:53;;;;;;;;;;;;;;;-144.99;100.00;52625.44;5004684;28;20509;-70
2024/02/22 06:06:20;;;;;;;;;;;;;;;-144.99;100.00;52594.84;5006622;28;19925;-69
2024/02/22 06:08:48;;;;;;;;;;;;;;;-144.99;100.00;52611.16;5006573;28;19969;-70
2024/02/22 06:11:15;;;;;;;;;;;;;;;-144.99;100.00;52554.09;4998071;28;19980;-72
2024/02/22 06:13:41;;;;;;;;;;;;;;;-144.99;100.00;52619.31;5006910;28;19937;-70
2024/02/22 06:16:08;;;;;;;;;;;;;;;-144.99;100.00;52623.38;5004620;28;19976;-70
2024/02/22 06:18:35;;;;;;;;;;;;;;;-144.99;100.00;52590.78;5007370;28;19933;-71
2024/02/22 06:21:02;;;;;;;;;;;;;;;-144.99;100.00;52594.84;5007282;28;19987;-70
2024/02/22 06:23:28;;;;;;;;;;;;;;;-144.99;100.00;52586.69;5006796;28;20405;-70
2024/02/22 06:25:57;;;;;;;;;;;;;;;-144.99;100.00;52615.25;5003093;28;19972;-71
2024/02/22 06:28:24;;;;;;;;;;;;;;;-144.99;100.00;52578.53;5012858;28;19957;-70
2024/02/22 06:30:50;;;;;;;;;;;;;;;-144.99;100.00;52598.94;5004528;28;20045;-70
2024/02/22 06:33:16;;;;;;;;;;;;;;;-144.99;100.00;52603.00;5007843;28;19980;-73
2024/02/22 06:35:43;;;;;;;;;;;;;;;-144.99;100.00;52603.00;5004998;28;20028;-71
2024/02/22 06:38:09;;;;;;;;;;;;;;;-144.99;100.00;52594.84;5004742;28;20013;-71
2024/02/22 06:40:36;;;;;;;;;;;;;;;-144.99;100.00;52566.31;5005775;28;20331;-72
2024/02/22 06:43:05;;;;;;;;;;;;;;;-144.99;100.00;52590.78;4313573;28;10000632;-70
2024/02/22 06:45:31;;;;;;;;;;;;;;;-144.99;100.00;52590.78;5003052;28;21044;-71
2024/02/22 06:47:58;;;;;;;;;;;;;;;-144.99;100.00;52615.25;5000706;28;19925;-74
2024/02/22 06:50:24;;;;;;;;;;;;;;;-144.99;100.00;52594.84;5006247;28;20114;-73
2024/02/22 06:52:51;;;;;;;;;;;;;;;-144.99;100.00;52582.63;5001515;28;19936;-72
2024/02/22 06:55:18;;;;;;;;;;;;;;;-144.99;100.00;52603.00;5005897;28;19936;-72
2024/02/22 06:57:44;;;;;;;;;;;;;;;-144.99;100.00;52558.16;5000885;28;19936;-71
2024/02/22 07:00:14;;;;;;;;;;;;;;;-144.99;100.00;52590.78;5002784;28;19934;-72
2024/02/22 07:02:40;;;;;;;;;;;;;;;-144.99;100.00;52592.81;5002885;28;20016;-73
2024/02/22 07:05:07;;;;;;;;;;;;;;;-144.99;100.00;52598.94;5001608;28;19930;-72
2024/02/22 07:07:33;;;;;;;;;;;;;;;-144.99;100.00;52576.50;5002282;28;19989;-73
2024/02/22 07:10:00;;;;;;;;;;;;;;;-144.99;100.00;52592.81;5000159;28;19981;-72
2024/02/22 07:12:26;;;;;;;;;;;;;;;-144.99;100.00;52578.53;5000378;28;19940;-73
2024/02/22 07:14:53;;;;;;;;;;;;;;;-144.99;100.00;52615.25;5001773;28;20016;-73
2024/02/22 07:17:21;;;;;;;;;;;;;;;-144.99;100.00;52562.25;5005974;28;20029;-73
2024/02/22 07:19:49;;;;;;;;;;;;;;;-144.99;100.00;52598.94;5001517;28;19930;-72
2024/02/22 07:22:15;;;;;;;;;;;;;;;-144.99;100.00;52582.63;5001830;28;19935;-73
2024/02/22 07:24:42;;;;;;;;;;;;;;;-144.99;100.00;52586.69;5001624;28;19957;-74
2024/02/22 07:27:09;;;;;;;;;;;;;;;-144.99;100.00;52611.16;5004892;28;20594;-74
2024/02/22 07:29:36;;;;;;;;;;;;;;;-144.99;100.00;52533.69;5001210;28;19996;-73
2024/02/22 07:32:03;;;;;;;;;;;;;;;-144.99;100.00;52621.34;5000254;28;20513;-72
2024/02/22 07:34:31;;;;;;;;;;;;;;;-144.99;100.00;52586.69;5003102;28;19934;-73
2024/02/22 07:36:57;;;;;;;;;;;;;;;-144.99;100.00;52556.13;4996199;28;19932;-73
2024/02/22 07:39:24;;;;;;;;;;;;;;;-144.99;100.00;52611.16;5002944;28;19929;-72
2024/02/22 07:41:50;;;;;;;;;;;;;;;-144.99;100.00;52605.03;5030910;22;19984;-71
2024/02/22 07:44:17;;;;;;;;;;;;;;;-144.99;100.00;52594.84;5036919;28;19959;-71
2024/02/22 07:46:43;;;;;;;;;;;;;;;-144.99;100.00;52582.63;5040157;28;20184;-74
2024/02/22 07:49:10;;;;;;;;;;;;;;;-144.99;100.00;52586.69;5040492;28;20008;-74
2024/02/22 07:51:38;;;;;;;;;;;;;;;-144.99;100.00;52574.47;5039648;28;20060;-75
2024/02/22 07:54:04;;;;;;;;;;;;;;;-144.99;100.00;52617.28;4690697;28;9999743;-75
2024/02/22 07:56:31;;;;;;;;;;;;;;;-144.99;100.00;52586.69;5039175;28;20011;-73
2024/02/22 07:58:58;;;;;;;;;;;;;;;-144.99;100.00;52566.31;5040811;28;19929;-73
2024/02/22 08:01:24;;;;;;;;;;;;;;;-144.99;100.00;52566.31;5040805;28;19937;-73
2024/02/22 08:03:53;;;;;;;;;;;;;;;-144.99;100.00;52580.59;5036355;28;19929;-71
2024/02/22 08:06:19;;;;;;;;;;;;;;;-144.99;100.00;52566.31;5033694;28;19928;-75
2024/02/22 08:08:47;;;;;;;;;;;;;;;-144.99;100.00;52586.69;5041693;28;19925;-72
2024/02/22 08:11:13;;;;;;;;;;;;;;;-144.99;100.00;52582.63;5039506;28;20257;-73
2024/02/22 08:13:40;;;;;;;;;;;;;;;-144.99;100.00;52611.16;5034201;28;19928;-74
2024/02/22 08:16:07;;;;;;;;;;;;;;;-144.99;100.00;52586.69;5038713;28;19970;-75
2024/02/22 08:18:34;;;;;;;;;;;;;;;-144.99;100.00;52550.00;5039782;28;19929;-74
2024/02/22 08:21:00;;;;;;;;;;;;;;;-144.99;100.00;52598.94;5040029;28;19928;-73
2024/02/22 08:23:27;;;;;;;;;;;;;;;-144.99;100.00;52609.13;5039170;28;19929;-73
2024/02/22 08:25:55;;;;;;;;;;;;;;;-144.99;100.00;52619.31;5038011;28;20315;-75
2024/02/22 08:28:21;;;;;;;;;;;;;;;-144.99;100.00;52550.00;5040147;28;20467;-74
2024/02/22 08:30:48;;;;;;;;;;;;;;;-144.99;100.00;52603.00;5040569;28;19967;-76
2024/02/22 08:33:15;;;;;;;;;;;;;;;-144.99;100.00;52574.47;5040731;28;19928;-74
2024/02/22 08:35:41;;;;;;;;;;;;;;;-144.99;100.00;52594.84;5037606;28;19929;-74
2024/02/22 08:38:09;;;;;;;;;;;;;;;-144.99;100.00;52607.09;5039837;28;20023;-76
2024/02/22 08:40:36;;;;;;;;;;;;;;;-144.99;100.00;52603.00;5040692;28;19933;-76
2024/02/22 08:43:04;;;;;;;;;;;;;;;-144.99;100.00;52582.63;5039960;28;20296;-75
2024/02/22 08:45:31;;;;;;;;;;;;;;;-144.99;100.00;52574.47;5040449;28;20024;-74
2024/02/22 08:47:58;;;;;;;;;;;;;;;-144.99;100.00;52590.78;5039769;28;20219;-74
2024/02/22 08:50:25;;;;;;;;;;;;;;;-144.99;100.00;52590.78;5040382;28;20004;-75
2024/02/22 08:52:51;;;;;;;;;;;;;;;-144.99;100.00;52603.00;5040400;28;20040;-75
2024/02/22 08:55:18;;;;;;;;;;;;;;;-144.99;100.00;52584.66;5039538;28;19929;-72
2024/02/22 08:57:44;;;;;;;;;;;;;;;-144.99;100.00;52598.94;5039814;28;20019;-74
2024/02/22 09:00:13;;;;;;;;;;;;;;;-144.99;100.00;52570.38;5043934;28;20003;-76
2024/02/22 09:02:39;;;;;;;;;;;;;;;-144.99;100.00;52574.47;5040335;28;19935;-74
2024/02/22 09:05:06;;;;;;;;;;;;;;;-144.99;100.00;52582.63;5040384;28;19939;-75
2024/02/22 09:07:33;;;;;;;;;;;;;;;-144.99;100.00;52615.25;5039258;28;20043;-77
2024/02/22 09:10:00;;;;;;;;;;;;;;;-144.99;100.00;52613.19;5039616;28;19933;-73
2024/02/22 09:12:26;;;;;;;;;;;;;;;-144.99;100.00;52590.78;5040255;28;20684;-73
2024/02/22 09:14:53;;;;;;;;;;;;;;;-144.99;100.00;52570.38;5040238;28;20043;-73
2024/02/22 09:17:20;;;;;;;;;;;;;;;-144.99;100.00;52566.31;5038382;28;20386;-72
2024/02/22 09:19:47;;;;;;;;;;;;;;;-144.99;100.00;52586.69;5039262;28;20024;-72
2024/02/22 09:22:13;;;;;;;;;;;;;;;-144.99;100.00;52582.63;5040333;28;20023;-74
2024/02/22 09:24:41;;;;;;;;;;;;;;;-144.99;100.00;52566.31;5039598;28;20016;-72
2024/02/22 09:27:08;;;;;;;;;;;;;;;-144.99;100.00;52562.25;5039116;28;19929;-73
2024/02/22 09:29:35;;;;;;;;;;;;;;;-144.99;100.00;52570.38;5041043;28;19929;-75
2024/02/22 09:32:02;;;;;;;;;;;;;;;-144.99;100.00;52566.31;5043888;28;20300;-73
2024/02/22 09:34:30;;;;;;;;;;;;;;;-144.99;100.00;52574.47;5043407;28;19932;-73
2024/02/22 09:36:56;;;;;;;;;;;;;;;-144.99;100.00;52603.00;5036980;28;19929;-73
2024/02/22 09:39:23;;;;;;;;;;;;;;;-144.99;100.00;52552.03;5040811;28;19933;-73
2024/02/22 09:41:50;;;;;;;;;;;;;;;-144.99;100.00;52556.13;5041477;28;19985;-70
2024/02/22 09:44:18;;;;;;;;;;;;;;;-144.99;100.00;52554.09;5044611;28;20035;-72
2024/02/22 09:46:48;;;;;;;;;;;;;;;-144.99;100.00;52600.97;5044011;28;19931;-74
2024/02/22 09:49:15;;;;;;;;;;;;;;;-144.99;100.00;52533.69;5043674;28;19928;-73
2024/02/22 09:51:43;;;;;;;;;;;;;;;-144.99;100.00;52558.16;5043739;28;20023;-73
2024/02/22 09:54:10;;;;;;;;;;;;;;;-144.99;100.00;52584.66;5042889;28;20735;-75
2024/02/22 09:56:38;;;;;;;;;;;;;;;-144.99;100.00;52570.38;5043570;28;19932;-74
2024/02/22 09:59:04;;;;;;;;;;;;;;;-144.99;100.00;52558.16;5044369;28;20040;-74
2024/02/22 10:01:30;;;;;;;;;;;;;;;-144.99;100.00;52574.47;5042367;28;20401;-75
2024/02/22 10:03:56;;;;;;;;;;;;;;;-144.99;100.00;52564.28;5041761;28;19933;-73
2024/02/22 10:06:24;;;;;;;;;;;;;;;-144.99;100.00;52598.94;5041822;28;19935;-74
2024/02/22 10:08:57;;;;;;;;;;;;;;;-144.99;100.00;52582.63;5044967;28;20388;-72
2024/02/22 10:11:24;;;;;;;;;;;;;;;-144.99;100.00;52582.63;5044778;28;20035;-75
2024/02/22 10:13:58;;;;;;;;;;;;;;;-144.99;100.00;52586.69;5040568;28;20614;-74
2024/02/22 10:16:25;;;;;;;;;;;;;;;-144.99;100.00;52574.47;5039124;28;19933;-76
2024/02/22 10:18:51;;;;;;;;;;;;;;;-144.99;100.00;52625.44;5043439;28;19929;-74
2024/02/22 10:21:18;;;;;;;;;;;;;;;-144.99;100.00;52533.69;5040102;28;19934;-74
2024/02/22 10:23:46;;;;;;;;;;;;;;;-144.99;100.00;52560.19;5043561;28;20383;-74
2024/02/22 10:26:13;;;;;;;;;;;;;;;-144.99;100.00;52558.16;5041441;28;19937;-74
2024/02/22 10:28:40;;;;;;;;;;;;;;;-144.99;100.00;52550.00;5043201;28;19928;-74
2024/02/22 10:31:07;;;;;;;;;;;;;;;-144.99;100.00;52525.56;5045203;28;19932;-75
2024/02/22 10:33:34;;;;;;;;;;;;;;;-144.99;100.00;52574.47;5046492;28;20390;-73
2024/02/22 10:36:01;;;;;;;;;;;;;;;-144.99;100.00;52521.47;5045426;28;19980;-75
2024/02/22 10:38:29;;;;;;;;;;;;;;;-144.99;100.00;52550.00;5040082;28;20019;-76
2024/02/22 10:40:56;;;;;;;;;;;;;;;-144.99;100.00;52523.50;5046273;28;19928;-76
2024/02/22 10:43:24;;;;;;;;;;;;;;;-144.99;100.00;52558.16;5046789;28;20020;-72
2024/02/22 10:45:53;;;;;;;;;;;;;;;-144.99;100.00;52574.47;5045914;28;20393;-73
2024/02/22 10:48:20;;;;;;;;;;;;;;;-144.99;100.00;52554.09;5042458;28;19935;-72
2024/02/22 10:50:48;;;;;;;;;;;;;;;-144.99;100.00;52576.50;5055820;28;19994;-74
2024/02/22 10:53:16;;;;;;;;;;;;;;;-144.99;100.00;52541.84;5047661;28;19960;-77
2024/02/22 10:55:49;;;;;;;;;;;;;;;-144.99;100.00;52545.94;5046775;28;20252;-74
2024/02/22 10:58:16;;;;;;;;;;;;;;;-144.99;100.00;52550.00;5047285;28;20202;-76
2024/02/22 11:00:44;;;;;;;;;;;;;;;-144.99;100.00;52558.16;5043150;28;20038;-76
2024/02/22 11:03:13;;;;;;;;;;;;;;;-144.99;100.00;52566.31;5045975;28;19956;-73
2024/02/22 11:05:39;;;;;;;;;;;;;;;-144.99;100.00;52566.31;5044664;28;19935;-74
2024/02/22 11:08:06;;;;;;;;;;;;;;;-144.99;100.00;52594.84;5044907;28;19931;-74
2024/02/22 11:10:32;;;;;;;;;;;;;;;-144.99;100.00;52560.19;5039804;28;19940;-76
2024/02/22 11:13:02;;;;;;;;;;;;;;;-144.99;100.00;52598.94;5043824;28;19929;-75
2024/02/22 11:15:31;;;;;;;;;;;;;;;-144.99;100.00;52541.84;5046856;28;20019;-76
2024/02/22 11:17:59;;;;;;;;;;;;;;;-144.99;100.00;52529.63;5046239;28;20800;-75
2024/02/22 11:20:33;;;;;;;;;;;;;;;-144.99;100.00;52582.63;5044176;28;19940;-75
2024/02/22 11:22:59;;;;;;;;;;;;;;;-144.99;100.00;52570.38;5047176;28;20381;-76
2024/02/22 11:25:26;;;;;;;;;;;;;;;-144.99;100.00;52598.94;5045950;28;19935;-74
2024/02/22 11:27:59;;;;;;;;;;;;;;;-144.99;100.00;52578.53;5045269;28;20027;-73
2024/02/22 11:30:26;;;;;;;;;;;;;;;-144.99;100.00;52574.47;5042058;28;20308;-74
2024/02/22 11:32:52;;;;;;;;;;;;;;;-144.99;100.00;52545.94;5044635;28;19932;-72
2024/02/22 11:35:20;;;;;;;;;;;;;;;-144.99;100.00;52574.47;5044682;28;19979;-75
2024/02/22 11:37:56;;;;;;;;;;;;;;;-144.99;100.00;52545.94;5045007;28;20083;-76
2024/02/22 11:40:22;;;;;;;;;;;;;;;-144.99;100.00;52554.09;5038304;28;20222;-76
2024/02/22 11:42:54;;;;;;;;;;;;;;;-144.99;100.00;52552.03;5043247;28;20027;-73
2024/02/22 11:45:20;;;;;;;;;;;;;;;-144.99;100.00;52545.94;5046433;28;19933;-74
2024/02/22 11:47:47;;;;;;;;;;;;;;;-144.99;100.00;52586.69;5044996;28;20019;-75
2024/02/22 11:50:14;;;;;;;;;;;;;;;-144.99;100.00;52574.47;5046012;28;20023;-76
2024/02/22 11:52:42;;;;;;;;;;;;;;;-144.99;100.00;52570.38;5044202;28;20008;-72
2024/02/22 11:55:09;;;;;;;;;;;;;;;-144.99;100.00;52521.47;5044109;28;19940;-74
2024/02/22 11:57:36;;;;;;;;;;;;;;;-144.99;100.00;52509.25;5042276;28;19924;-78
2024/02/22 12:00:02;;;;;;;;;;;;;;;-144.99;100.00;52541.84;5043089;28;19971;-74
2024/02/22 12:02:29;;;;;;;;;;;;;;;-144.99;100.00;52521.47;5045129;28;20468;-76
2024/02/22 12:04:56;;;;;;;;;;;;;;;-144.99;100.00;52586.69;5045176;28;20368;-74
2024/02/22 12:07:22;;;;;;;;;;;;;;;-144.99;100.00;52519.44;5045409;28;19925;-73
2024/02/22 12:09:50;;;;;;;;;;;;;;;-144.99;100.00;52537.78;5046211;28;19940;-74
2024/02/22 12:12:17;;;;;;;;;;;;;;;-144.99;100.00;52509.25;5045569;28;20028;-74
2024/02/22 12:14:43;;;;;;;;;;;;;;;-144.99;100.00;52525.56;5043142;28;19991;-75
2024/02/22 12:17:10;;;;;;;;;;;;;;;-144.99;100.00;52525.56;5045083;28;20158;-76
2024/02/22 12:19:37;;;;;;;;;;;;;;;-144.99;100.00;52427.72;5050491;28;19928;-76